createdAt,value
2018-03-31T00:00:01.467Z,9.70
2018-03-31T00:01:38.818Z,9.60
2018-03-31T00:03:14.313Z,9.40
2018-03-31T00:04:49.145Z,9.30
2018-03-31T00:06:23.899Z,9.20
2018-03-31T00:07:59.545Z,9.00
2018-03-31T00:09:34.322Z,9.00
2018-03-31T00:11:10.007Z,9.00
2018-03-31T00:12:44.725Z,8.90
2018-03-31T00:14:20.566Z,8.90
2018-03-31T00:15:55.612Z,8.90
2018-03-31T00:17:31.212Z,9.10
2018-03-31T00:19:05.963Z,9.10
2018-03-31T00:20:41.059Z,9.20
2018-03-31T00:22:19.664Z,9.10
2018-03-31T00:23:54.449Z,9.10
2018-03-31T00:25:29.198Z,9.10
2018-03-31T00:27:04.190Z,9.10
2018-03-31T00:28:38.953Z,9.10
2018-03-31T00:30:16.112Z,9.10
2018-03-31T00:31:51.000Z,9.20
2018-03-31T00:33:26.137Z,9.30
2018-03-31T00:35:01.012Z,9.50
2018-03-31T00:36:35.840Z,9.70
2018-03-31T00:38:11.452Z,10.50
2018-03-31T00:39:46.553Z,10.50
2018-03-31T00:41:21.443Z,10.90
2018-03-31T00:42:56.322Z,11.10
2018-03-31T00:44:31.861Z,11.40
2018-03-31T00:46:07.544Z,11.40
2018-03-31T00:47:42.490Z,11.40
2018-03-31T00:49:18.269Z,11.20
2018-03-31T00:50:53.246Z,11.20
2018-03-31T00:52:29.314Z,10.50
2018-03-31T00:54:04.098Z,10.40
2018-03-31T00:55:38.813Z,10.10
2018-03-31T00:57:13.444Z,9.80
2018-03-31T00:58:49.376Z,9.30
2018-03-31T01:00:25.878Z,9.30
2018-03-31T01:02:00.715Z,9.30
2018-03-31T01:03:36.108Z,9.30
2018-03-31T01:05:11.969Z,9.50
2018-03-31T01:06:47.618Z,9.70
2018-03-31T01:08:22.540Z,9.70
2018-03-31T01:09:57.264Z,10.10
2018-03-31T01:11:32.266Z,10.30
2018-03-31T01:13:07.079Z,10.60
2018-03-31T01:14:41.821Z,10.70
2018-03-31T01:16:17.210Z,10.80
2018-03-31T01:17:52.186Z,10.90
2018-03-31T01:19:26.901Z,11.10
2018-03-31T01:21:01.950Z,11.20
2018-03-31T01:22:36.719Z,11.20
2018-03-31T01:24:11.893Z,11.10
2018-03-31T01:25:46.425Z,11.20
2018-03-31T01:27:21.218Z,11.10
2018-03-31T01:28:55.991Z,10.80
2018-03-31T01:30:31.934Z,10.30
2018-03-31T01:32:07.319Z,9.80
2018-03-31T01:33:41.964Z,9.40
2018-03-31T01:35:16.537Z,9.10
2018-03-31T01:36:51.590Z,8.90
2018-03-31T01:38:26.545Z,8.80
2018-03-31T01:40:01.997Z,8.50
2018-03-31T01:41:37.132Z,8.50
2018-03-31T01:43:11.925Z,8.50
2018-03-31T01:44:47.038Z,8.60
2018-03-31T01:46:22.450Z,9.00
2018-03-31T01:47:57.787Z,9.00
2018-03-31T01:49:32.909Z,9.20
2018-03-31T01:51:08.590Z,9.40
2018-03-31T01:52:43.719Z,9.60
2018-03-31T01:54:18.193Z,9.80
2018-03-31T01:55:53.356Z,9.80
2018-03-31T01:57:27.841Z,9.80
2018-03-31T01:59:02.904Z,9.80
2018-03-31T02:00:38.758Z,9.70
2018-03-31T02:02:13.791Z,9.60
2018-03-31T02:03:48.907Z,9.50
2018-03-31T02:05:24.491Z,9.50
2018-03-31T02:06:59.231Z,9.50
2018-03-31T02:08:34.107Z,9.50
2018-03-31T02:10:08.825Z,9.40
2018-03-31T02:11:43.792Z,9.20
2018-03-31T02:13:18.462Z,9.20
2018-03-31T02:14:54.292Z,9.50
2018-03-31T02:16:30.105Z,9.80
2018-03-31T02:18:05.893Z,10.20
2018-03-31T02:19:40.702Z,10.10
2018-03-31T02:21:15.664Z,10.30
2018-03-31T02:22:50.360Z,10.50
2018-03-31T02:24:25.690Z,10.50
2018-03-31T02:26:00.381Z,10.50
2018-03-31T02:27:36.043Z,10.40
2018-03-31T02:29:10.997Z,10.20
2018-03-31T02:30:46.513Z,10.00
2018-03-31T02:32:21.427Z,9.90
2018-03-31T02:33:56.475Z,9.80
2018-03-31T02:35:31.180Z,9.70
2018-03-31T02:37:05.851Z,9.70
2018-03-31T02:38:40.308Z,9.70
2018-03-31T02:40:15.071Z,9.70
2018-03-31T02:41:49.672Z,9.80
2018-03-31T02:43:25.034Z,10.00
2018-03-31T02:44:59.424Z,10.00
2018-03-31T02:46:34.630Z,10.30
2018-03-31T02:48:10.068Z,10.60
2018-03-31T02:49:44.919Z,10.60
2018-03-31T02:51:20.188Z,10.40
2018-03-31T02:52:55.343Z,10.40
2018-03-31T02:54:30.547Z,10.20
2018-03-31T02:56:05.182Z,10.20
2018-03-31T02:57:39.704Z,10.30
2018-03-31T02:59:14.520Z,10.20
2018-03-31T03:00:50.538Z,10.10
2018-03-31T03:02:25.092Z,10.10
2018-03-31T03:03:59.753Z,9.90
2018-03-31T03:05:35.033Z,9.70
2018-03-31T03:07:09.667Z,9.60
2018-03-31T03:08:44.265Z,9.60
2018-03-31T03:10:18.580Z,9.60
2018-03-31T03:11:53.374Z,9.60
2018-03-31T03:13:27.994Z,9.70
2018-03-31T03:15:02.283Z,9.90
2018-03-31T03:16:37.096Z,10.10
2018-03-31T03:18:11.566Z,10.20
2018-03-31T03:19:45.831Z,10.10
2018-03-31T03:21:19.846Z,9.90
2018-03-31T03:22:54.714Z,9.40
2018-03-31T03:24:28.948Z,9.40
2018-03-31T03:26:03.075Z,9.20
2018-03-31T03:27:37.169Z,9.10
2018-03-31T03:29:12.180Z,8.80
2018-03-31T03:30:47.157Z,8.50
2018-03-31T03:32:21.874Z,8.10
2018-03-31T03:33:56.074Z,8.10
2018-03-31T03:35:30.262Z,8.00
2018-03-31T03:37:05.301Z,7.90
2018-03-31T03:38:40.127Z,7.80
2018-03-31T03:40:14.853Z,7.70
2018-03-31T03:41:48.910Z,7.60
2018-03-31T03:43:23.531Z,7.30
2018-03-31T03:44:58.090Z,7.00
2018-03-31T03:46:32.578Z,6.70
2018-03-31T03:48:06.705Z,6.60
2018-03-31T03:49:41.050Z,6.50
2018-03-31T03:51:15.229Z,6.40
2018-03-31T03:52:49.373Z,6.40
2018-03-31T03:54:23.459Z,6.50
2018-03-31T03:55:57.851Z,6.60
2018-03-31T03:57:31.867Z,6.60
2018-03-31T03:59:05.985Z,6.70
2018-03-31T04:00:40.251Z,6.70
2018-03-31T04:02:14.765Z,6.60
2018-03-31T04:03:49.348Z,6.40
2018-03-31T04:05:23.964Z,6.30
2018-03-31T04:06:58.372Z,6.10
2018-03-31T04:08:33.527Z,5.90
2018-03-31T04:10:07.788Z,5.90
2018-03-31T04:11:41.947Z,5.90
2018-03-31T04:13:15.983Z,5.90
2018-03-31T04:14:50.662Z,5.90
2018-03-31T04:16:25.600Z,5.90
2018-03-31T04:17:59.624Z,6.00
2018-03-31T04:19:33.735Z,5.90
2018-03-31T04:21:08.489Z,5.90
2018-03-31T04:22:42.882Z,5.90
2018-03-31T04:24:17.152Z,6.00
2018-03-31T04:25:51.450Z,6.30
2018-03-31T04:27:26.120Z,6.50
2018-03-31T04:29:00.581Z,6.60
2018-03-31T04:30:35.903Z,6.70
2018-03-31T04:32:10.908Z,6.90
2018-03-31T04:33:45.577Z,6.90
2018-03-31T04:35:20.707Z,7.10
2018-03-31T04:36:54.794Z,7.10
2018-03-31T04:38:28.900Z,7.20
2018-03-31T04:40:03.111Z,7.20
2018-03-31T04:41:38.174Z,7.00
2018-03-31T04:43:12.376Z,7.00
2018-03-31T04:44:47.212Z,6.70
2018-03-31T04:46:22.053Z,6.70
2018-03-31T04:47:56.014Z,6.50
2018-03-31T04:49:29.975Z,6.40
2018-03-31T04:51:04.269Z,6.30
2018-03-31T04:52:38.728Z,6.20
2018-03-31T04:54:12.861Z,6.20
2018-03-31T04:55:47.035Z,6.20
2018-03-31T04:57:20.977Z,6.20
2018-03-31T04:58:55.653Z,6.40
2018-03-31T05:00:29.980Z,6.50
2018-03-31T05:02:04.497Z,6.70
2018-03-31T05:03:38.534Z,6.60
2018-03-31T05:05:15.234Z,6.40
2018-03-31T05:06:49.643Z,6.40
2018-03-31T05:08:24.441Z,6.40
2018-03-31T05:09:59.338Z,6.50
2018-03-31T05:11:33.847Z,6.50
2018-03-31T05:13:07.942Z,6.60
2018-03-31T05:14:41.849Z,6.60
2018-03-31T05:16:16.794Z,6.80
2018-03-31T05:17:51.292Z,7.00
2018-03-31T05:19:26.286Z,7.20
2018-03-31T05:21:00.630Z,7.20
2018-03-31T05:22:35.197Z,7.10
2018-03-31T05:24:10.220Z,6.90
2018-03-31T05:25:45.496Z,6.60
2018-03-31T05:27:19.835Z,6.60
2018-03-31T05:28:53.956Z,6.60
2018-03-31T05:30:28.888Z,6.40
2018-03-31T05:32:03.622Z,6.20
2018-03-31T05:33:37.712Z,6.10
2018-03-31T05:35:11.801Z,6.00
2018-03-31T05:36:46.907Z,5.80
2018-03-31T05:38:20.914Z,5.80
2018-03-31T05:39:55.959Z,6.00
2018-03-31T05:41:30.729Z,6.10
2018-03-31T05:43:04.976Z,6.10
2018-03-31T05:44:39.532Z,6.00
2018-03-31T05:46:14.552Z,6.00
2018-03-31T05:47:48.796Z,5.90
2018-03-31T05:49:23.563Z,5.90
2018-03-31T05:50:58.258Z,5.80
2018-03-31T05:52:32.386Z,5.80
2018-03-31T05:54:07.311Z,5.90
2018-03-31T05:55:42.480Z,5.90
2018-03-31T05:57:16.630Z,5.90
2018-03-31T05:58:51.611Z,6.10
2018-03-31T06:00:29.190Z,6.10
2018-03-31T06:02:04.066Z,6.10
2018-03-31T06:03:38.384Z,6.10
2018-03-31T06:05:13.176Z,6.00
2018-03-31T06:06:47.302Z,5.90
2018-03-31T06:08:21.629Z,5.90
2018-03-31T06:09:56.361Z,5.90
2018-03-31T06:11:30.946Z,6.00
2018-03-31T06:13:05.916Z,6.10
2018-03-31T06:14:40.835Z,6.00
2018-03-31T06:16:15.567Z,6.20
2018-03-31T06:17:50.027Z,6.10
2018-03-31T06:19:24.693Z,6.10
2018-03-31T06:20:59.446Z,6.20
2018-03-31T06:22:33.720Z,6.20
2018-03-31T06:24:08.553Z,6.10
2018-03-31T06:25:43.717Z,5.90
2018-03-31T06:27:19.520Z,5.90
2018-03-31T06:28:54.990Z,5.90
2018-03-31T06:30:30.635Z,5.80
2018-03-31T06:32:05.249Z,5.80
2018-03-31T06:33:42.585Z,5.80
2018-03-31T06:35:17.052Z,5.80
2018-03-31T06:36:52.754Z,5.80
2018-03-31T06:38:31.589Z,5.80
2018-03-31T06:40:06.198Z,5.90
2018-03-31T06:41:40.489Z,6.00
2018-03-31T06:43:21.986Z,6.00
2018-03-31T06:44:56.533Z,6.20
2018-03-31T06:46:31.770Z,6.30
2018-03-31T06:48:06.231Z,6.30
2018-03-31T06:49:40.724Z,6.50
2018-03-31T06:51:16.756Z,6.60
2018-03-31T06:52:52.188Z,6.80
2018-03-31T06:54:27.068Z,6.80
2018-03-31T06:56:02.741Z,6.90
2018-03-31T06:57:37.528Z,7.00
2018-03-31T06:59:12.329Z,7.10
2018-03-31T07:00:50.017Z,7.10
2018-03-31T07:02:24.587Z,6.90
2018-03-31T07:03:58.853Z,6.90
2018-03-31T07:05:38.199Z,6.90
2018-03-31T07:07:12.661Z,6.90
2018-03-31T07:08:48.575Z,7.10
2018-03-31T07:10:22.892Z,7.10
2018-03-31T07:11:58.630Z,7.10
2018-03-31T07:13:33.334Z,7.20
2018-03-31T07:15:07.684Z,7.20
2018-03-31T07:16:43.613Z,7.30
2018-03-31T07:18:18.201Z,7.30
2018-03-31T07:19:52.752Z,7.20
2018-03-31T07:21:28.926Z,7.20
2018-03-31T07:23:03.357Z,7.10
2018-03-31T07:24:41.202Z,7.30
2018-03-31T07:26:15.684Z,7.40
2018-03-31T07:27:49.929Z,7.30
2018-03-31T07:29:25.573Z,7.20
2018-03-31T07:31:00.894Z,7.20
2018-03-31T07:32:44.101Z,7.30
2018-03-31T07:34:18.693Z,7.40
2018-03-31T07:35:53.224Z,7.40
2018-03-31T07:37:27.988Z,7.60
2018-03-31T07:39:03.226Z,7.70
2018-03-31T07:40:42.698Z,7.80
2018-03-31T07:42:17.099Z,7.80
2018-03-31T07:43:51.819Z,7.80
2018-03-31T07:45:27.883Z,7.90
2018-03-31T07:47:02.421Z,8.00
2018-03-31T07:48:38.746Z,8.10
2018-03-31T07:50:13.936Z,8.00
2018-03-31T07:51:48.443Z,8.10
2018-03-31T07:53:22.783Z,8.30
2018-03-31T07:54:57.948Z,8.30
2018-03-31T07:56:32.866Z,8.30
2018-03-31T07:58:07.547Z,8.40
2018-03-31T07:59:41.936Z,8.50
2018-03-31T08:01:17.405Z,8.60
2018-03-31T08:02:52.249Z,8.60
2018-03-31T08:04:26.614Z,8.60
2018-03-31T08:06:01.912Z,8.80
2018-03-31T08:07:36.339Z,8.80
2018-03-31T08:09:11.795Z,9.00
2018-03-31T08:10:46.243Z,9.00
2018-03-31T08:12:20.573Z,8.80
2018-03-31T08:13:55.029Z,9.00
2018-03-31T08:15:29.707Z,9.10
2018-03-31T08:17:04.817Z,9.30
2018-03-31T08:18:39.349Z,9.70
2018-03-31T08:20:13.863Z,10.10
2018-03-31T08:21:48.798Z,10.20
2018-03-31T08:23:24.556Z,9.80
2018-03-31T08:24:59.007Z,9.80
2018-03-31T08:26:33.365Z,9.90
2018-03-31T08:28:08.174Z,9.90
2018-03-31T08:29:42.545Z,10.00
2018-03-31T08:31:17.071Z,10.20
2018-03-31T08:32:51.825Z,10.20
2018-03-31T08:34:26.621Z,10.10
2018-03-31T08:36:00.840Z,10.10
2018-03-31T08:37:35.268Z,10.20
2018-03-31T08:39:10.262Z,10.10
2018-03-31T08:40:44.676Z,10.10
2018-03-31T08:42:18.861Z,10.30
2018-03-31T08:43:53.442Z,10.20
2018-03-31T08:45:28.677Z,10.20
2018-03-31T08:47:03.296Z,10.20
2018-03-31T08:48:39.181Z,10.50
2018-03-31T08:50:14.293Z,10.40
2018-03-31T08:51:49.426Z,10.40
2018-03-31T08:53:24.047Z,10.40
2018-03-31T08:54:59.033Z,10.50
2018-03-31T08:56:33.293Z,10.50
2018-03-31T08:58:08.334Z,10.50
2018-03-31T08:59:43.832Z,10.50
2018-03-31T09:01:18.414Z,10.50
2018-03-31T09:02:53.759Z,11.40
2018-03-31T09:04:28.464Z,11.40
2018-03-31T09:06:06.365Z,11.90
2018-03-31T09:07:40.857Z,12.50
2018-03-31T09:09:16.525Z,12.70
2018-03-31T09:10:51.450Z,13.10
2018-03-31T09:12:27.473Z,13.30
2018-03-31T09:14:02.603Z,13.90
2018-03-31T09:15:37.748Z,13.80
2018-03-31T09:17:12.043Z,14.10
2018-03-31T09:18:46.601Z,13.60
2018-03-31T09:20:21.075Z,13.60
2018-03-31T09:21:55.585Z,13.70
2018-03-31T09:23:30.114Z,13.40
2018-03-31T09:25:04.871Z,13.10
2018-03-31T09:26:39.204Z,13.30
2018-03-31T09:28:13.538Z,13.20
2018-03-31T09:29:48.837Z,12.70
2018-03-31T09:31:23.304Z,12.20
2018-03-31T09:32:58.004Z,12.60
2018-03-31T09:34:33.268Z,13.00
2018-03-31T09:36:07.613Z,13.00
2018-03-31T09:37:42.042Z,12.50
2018-03-31T09:39:16.461Z,12.00
2018-03-31T09:40:50.739Z,11.70
2018-03-31T09:42:25.129Z,11.60
2018-03-31T09:43:59.938Z,11.90
2018-03-31T09:45:34.432Z,12.30
2018-03-31T09:47:08.851Z,12.00
2018-03-31T09:48:44.287Z,11.90
2018-03-31T09:50:19.347Z,12.10
2018-03-31T09:51:55.294Z,12.80
2018-03-31T09:53:31.033Z,12.90
2018-03-31T09:55:05.765Z,13.00
2018-03-31T09:56:40.883Z,12.80
2018-03-31T09:58:15.490Z,12.80
2018-03-31T09:59:52.431Z,12.60
2018-03-31T10:01:26.824Z,12.60
2018-03-31T10:03:06.924Z,13.20
2018-03-31T10:04:41.496Z,13.20
2018-03-31T10:06:16.317Z,13.40
2018-03-31T10:07:51.144Z,13.90
2018-03-31T10:09:27.230Z,14.00
2018-03-31T10:11:01.787Z,14.40
2018-03-31T10:12:40.185Z,14.80
2018-03-31T10:14:15.811Z,14.90
2018-03-31T10:15:50.353Z,15.10
2018-03-31T10:19:01.314Z,15.20
2018-03-31T10:20:36.749Z,14.20
2018-03-31T10:22:12.959Z,13.90
2018-03-31T10:23:47.488Z,13.90
2018-03-31T10:25:22.138Z,13.90
2018-03-31T10:26:56.712Z,14.30
2018-03-31T10:28:31.667Z,14.40
2018-03-31T10:30:06.804Z,14.00
2018-03-31T10:31:42.408Z,13.70
2018-03-31T10:33:17.074Z,13.60
2018-03-31T10:34:51.914Z,13.80
2018-03-31T10:36:26.317Z,14.00
2018-03-31T10:38:00.858Z,13.30
2018-03-31T10:39:35.293Z,13.50
2018-03-31T10:41:11.002Z,14.10
2018-03-31T10:42:45.371Z,14.30
2018-03-31T10:44:19.712Z,14.20
2018-03-31T10:45:54.049Z,14.20
2018-03-31T10:47:29.649Z,13.90
2018-03-31T10:49:04.343Z,13.90
2018-03-31T10:50:38.804Z,14.40
2018-03-31T10:52:14.031Z,14.70
2018-03-31T10:53:48.739Z,15.00
2018-03-31T10:55:22.935Z,14.40
2018-03-31T10:56:57.357Z,13.90
2018-03-31T10:58:31.693Z,13.50
2018-03-31T11:00:06.749Z,13.50
2018-03-31T11:01:41.183Z,13.70
2018-03-31T11:03:16.644Z,13.10
2018-03-31T11:04:51.019Z,13.10
2018-03-31T11:06:25.986Z,13.10
2018-03-31T11:08:03.908Z,13.00
2018-03-31T11:09:38.710Z,12.90
2018-03-31T11:11:13.305Z,12.90
2018-03-31T11:12:48.006Z,12.70
2018-03-31T11:14:22.423Z,12.50
2018-03-31T11:15:57.707Z,12.80
2018-03-31T11:17:32.124Z,12.80
2018-03-31T11:19:07.087Z,13.40
2018-03-31T11:20:41.807Z,14.00
2018-03-31T11:22:16.042Z,14.00
2018-03-31T11:23:50.459Z,13.90
2018-03-31T11:25:25.190Z,14.50
2018-03-31T11:26:59.640Z,14.90
2018-03-31T11:28:33.936Z,15.00
2018-03-31T11:30:08.425Z,15.20
2018-03-31T11:31:43.368Z,15.30
2018-03-31T11:33:17.798Z,14.80
2018-03-31T11:34:52.135Z,14.60
2018-03-31T11:36:27.392Z,15.00
2018-03-31T11:38:01.798Z,15.00
2018-03-31T11:39:37.629Z,15.10
2018-03-31T11:41:11.954Z,15.20
2018-03-31T11:42:46.530Z,15.20
2018-03-31T11:44:21.235Z,15.30
2018-03-31T11:45:55.911Z,15.50
2018-03-31T11:47:30.304Z,15.30
2018-03-31T11:49:04.672Z,15.10
2018-03-31T11:50:39.371Z,14.90
2018-03-31T11:52:13.805Z,14.80
2018-03-31T11:53:48.479Z,14.90
2018-03-31T11:55:23.803Z,15.20
2018-03-31T11:56:58.679Z,15.10
2018-03-31T11:58:33.315Z,15.30
2018-03-31T12:00:11.678Z,15.40
2018-03-31T12:01:56.399Z,15.30
2018-03-31T12:03:31.635Z,15.20
2018-03-31T12:05:06.221Z,14.90
2018-03-31T12:06:41.256Z,14.40
2018-03-31T12:08:16.515Z,14.20
2018-03-31T12:10:01.121Z,14.10
2018-03-31T12:11:36.869Z,14.60
2018-03-31T12:13:11.729Z,15.20
2018-03-31T12:14:45.933Z,15.60
2018-03-31T12:16:23.983Z,15.80
2018-03-31T12:17:59.778Z,15.80
2018-03-31T12:19:34.444Z,15.80
2018-03-31T12:21:08.844Z,15.70
2018-03-31T12:24:46.601Z,15.40
2018-03-31T12:26:21.316Z,15.30
2018-03-31T12:27:55.673Z,15.20
2018-03-31T12:29:30.248Z,15.00
2018-03-31T12:31:05.663Z,15.20
2018-03-31T12:32:39.992Z,15.20
2018-03-31T12:34:14.259Z,15.10
2018-03-31T12:35:50.265Z,15.70
2018-03-31T12:37:25.383Z,16.00
2018-03-31T12:38:59.686Z,16.00
2018-03-31T12:40:33.906Z,15.90
2018-03-31T12:42:08.414Z,15.70
2018-03-31T12:43:42.799Z,15.80
2018-03-31T12:45:19.980Z,15.60
2018-03-31T12:46:54.859Z,15.30
2018-03-31T12:48:30.476Z,15.00
2018-03-31T12:50:04.820Z,14.80
2018-03-31T12:51:39.512Z,14.90
2018-03-31T12:53:15.395Z,15.20
2018-03-31T12:54:49.782Z,15.70
2018-03-31T12:56:24.078Z,15.80
2018-03-31T12:57:58.307Z,15.70
2018-03-31T12:59:39.522Z,14.80
2018-03-31T13:02:49.556Z,15.30
2018-03-31T13:04:24.923Z,16.10
2018-03-31T13:05:59.232Z,16.10
2018-03-31T13:07:33.582Z,16.20
2018-03-31T13:09:08.060Z,16.20
2018-03-31T13:10:42.636Z,15.90
2018-03-31T13:12:16.881Z,16.10
2018-03-31T13:13:51.534Z,16.30
2018-03-31T13:15:28.266Z,16.40
2018-03-31T13:17:03.936Z,16.40
2018-03-31T13:18:39.554Z,16.20
2018-03-31T13:20:14.672Z,16.00
2018-03-31T13:21:49.953Z,15.90
2018-03-31T13:23:24.774Z,15.90
2018-03-31T13:24:59.047Z,15.70
2018-03-31T13:26:33.624Z,15.50
2018-03-31T13:28:07.948Z,15.40
2018-03-31T13:29:42.144Z,15.20
2018-03-31T13:31:16.574Z,15.30
2018-03-31T13:32:54.729Z,15.40
2018-03-31T13:34:29.292Z,15.40
2018-03-31T13:36:03.986Z,15.40
2018-03-31T13:37:38.696Z,15.40
2018-03-31T13:39:13.532Z,15.40
2018-03-31T13:40:47.883Z,15.50
2018-03-31T13:42:22.599Z,15.70
2018-03-31T13:43:57.013Z,15.90
2018-03-31T13:45:31.541Z,15.90
2018-03-31T13:47:05.853Z,15.50
2018-03-31T13:48:40.641Z,15.30
2018-03-31T13:50:14.962Z,15.20
2018-03-31T13:51:49.525Z,15.10
2018-03-31T13:53:23.885Z,15.00
2018-03-31T13:54:58.629Z,15.10
2018-03-31T13:56:32.907Z,15.20
2018-03-31T13:58:07.497Z,15.20
2018-03-31T13:59:41.772Z,15.30
2018-03-31T14:01:16.288Z,15.30
2018-03-31T14:02:50.950Z,15.20
2018-03-31T14:04:26.431Z,15.20
2018-03-31T14:06:00.698Z,15.20
2018-03-31T14:07:35.517Z,14.30
2018-03-31T14:09:10.454Z,14.90
2018-03-31T14:10:45.407Z,15.10
2018-03-31T14:12:19.683Z,15.10
2018-03-31T14:13:54.810Z,15.00
2018-03-31T14:15:29.417Z,15.00
2018-03-31T14:17:04.260Z,14.80
2018-03-31T14:18:39.684Z,14.90
2018-03-31T14:20:14.643Z,15.10
2018-03-31T14:21:48.924Z,15.10
2018-03-31T14:23:23.950Z,15.00
2018-03-31T14:24:59.245Z,14.90
2018-03-31T14:26:33.383Z,15.00
2018-03-31T14:28:07.529Z,15.00
2018-03-31T14:29:41.849Z,15.10
2018-03-31T14:31:17.072Z,15.10
2018-03-31T14:32:51.288Z,15.30
2018-03-31T14:34:25.439Z,15.50
2018-03-31T14:35:59.712Z,15.40
2018-03-31T14:37:35.070Z,15.30
2018-03-31T14:39:10.005Z,15.30
2018-03-31T14:40:44.988Z,15.30
2018-03-31T14:42:19.057Z,15.30
2018-03-31T14:43:53.675Z,15.30
2018-03-31T14:45:27.798Z,15.20
2018-03-31T14:47:02.059Z,15.20
2018-03-31T14:48:36.408Z,15.20
2018-03-31T14:50:10.775Z,15.30
2018-03-31T14:51:44.927Z,15.50
2018-03-31T14:53:19.199Z,15.50
2018-03-31T14:54:53.505Z,15.40
2018-03-31T14:56:28.021Z,15.40
2018-03-31T14:58:02.156Z,15.50
2018-03-31T14:59:40.155Z,15.50
2018-03-31T15:01:14.676Z,15.60
2018-03-31T15:02:49.681Z,15.90
2018-03-31T15:04:24.157Z,15.90
2018-03-31T15:05:58.528Z,15.90
2018-03-31T15:07:33.034Z,15.60
2018-03-31T15:09:07.285Z,15.40
2018-03-31T15:10:42.203Z,15.60
2018-03-31T15:12:16.304Z,15.50
2018-03-31T15:13:51.019Z,15.50
2018-03-31T15:15:28.741Z,15.40
2018-03-31T15:17:03.817Z,15.40
2018-03-31T15:18:37.973Z,15.40
2018-03-31T15:20:12.619Z,15.50
2018-03-31T15:21:46.825Z,15.50
2018-03-31T15:23:21.887Z,15.60
2018-03-31T15:24:56.229Z,15.60
2018-03-31T15:26:30.610Z,15.60
2018-03-31T15:28:04.808Z,15.70
2018-03-31T15:29:39.837Z,15.60
2018-03-31T15:31:14.872Z,15.70
2018-03-31T15:32:49.151Z,15.60
2018-03-31T15:34:23.458Z,15.40
2018-03-31T15:35:57.838Z,15.50
2018-03-31T15:37:32.297Z,15.70
2018-03-31T15:39:06.547Z,15.80
2018-03-31T15:40:40.831Z,15.80
2018-03-31T15:42:16.618Z,15.90
2018-03-31T15:43:51.318Z,15.80
2018-03-31T15:45:28.178Z,16.10
2018-03-31T15:47:02.642Z,16.20
2018-03-31T15:48:37.827Z,15.90
2018-03-31T15:50:12.855Z,15.90
2018-03-31T15:51:47.497Z,15.80
2018-03-31T15:53:21.595Z,15.80
2018-03-31T15:54:55.888Z,15.70
2018-03-31T15:56:30.540Z,15.70
2018-03-31T15:58:05.810Z,15.60
2018-03-31T15:59:40.758Z,15.60
2018-03-31T16:01:15.407Z,15.60
2018-03-31T16:02:51.187Z,15.60
2018-03-31T16:04:25.412Z,15.70
2018-03-31T16:06:00.515Z,15.70
2018-03-31T16:07:34.900Z,15.70
2018-03-31T16:09:10.355Z,15.70
2018-03-31T16:10:44.676Z,15.70
2018-03-31T16:12:18.790Z,15.70
2018-03-31T16:13:53.189Z,15.60
2018-03-31T16:15:29.793Z,15.40
2018-03-31T16:17:04.022Z,15.40
2018-03-31T16:18:38.962Z,15.60
2018-03-31T16:20:13.932Z,15.50
2018-03-31T16:21:48.799Z,15.70
2018-03-31T16:23:23.185Z,15.60
2018-03-31T16:24:58.144Z,15.70
2018-03-31T16:26:33.585Z,15.70
2018-03-31T16:28:09.011Z,15.70
2018-03-31T16:29:43.442Z,15.70
2018-03-31T16:31:26.132Z,15.80
2018-03-31T16:33:03.908Z,15.90
2018-03-31T16:34:39.256Z,15.90
2018-03-31T16:36:13.669Z,16.10
2018-03-31T16:37:47.955Z,16.10
2018-03-31T16:39:22.254Z,16.20
2018-03-31T16:40:56.996Z,16.10
2018-03-31T16:42:31.285Z,16.10
2018-03-31T16:44:06.356Z,16.00
2018-03-31T16:45:40.583Z,16.00
2018-03-31T16:47:14.858Z,16.00
2018-03-31T16:48:49.831Z,16.00
2018-03-31T16:50:24.114Z,16.00
2018-03-31T16:51:58.851Z,15.80
2018-03-31T16:53:33.224Z,15.40
2018-03-31T16:55:07.291Z,15.10
2018-03-31T16:56:41.868Z,15.00
2018-03-31T16:58:16.659Z,15.00
2018-03-31T16:59:50.987Z,15.00
2018-03-31T17:01:25.305Z,15.00
2018-03-31T17:02:59.840Z,15.20
2018-03-31T17:04:34.715Z,15.30
2018-03-31T17:06:08.918Z,15.40
2018-03-31T17:07:43.129Z,15.30
2018-03-31T17:09:17.447Z,15.40
2018-03-31T17:10:51.754Z,15.40
2018-03-31T17:12:25.968Z,15.30
2018-03-31T17:14:00.639Z,15.20
2018-03-31T17:15:35.157Z,15.20
2018-03-31T17:17:10.088Z,15.20
2018-03-31T17:18:45.377Z,15.20
2018-03-31T17:20:19.653Z,15.20
2018-03-31T17:21:53.981Z,15.40
2018-03-31T17:23:28.594Z,15.30
2018-03-31T17:25:03.335Z,15.40
2018-03-31T17:26:37.447Z,15.40
2018-03-31T17:28:11.803Z,15.40
2018-03-31T17:29:46.462Z,15.40
2018-03-31T17:31:21.283Z,15.40
2018-03-31T17:32:56.277Z,15.70
2018-03-31T17:34:31.059Z,15.70
2018-03-31T17:36:05.620Z,15.70
2018-03-31T17:37:40.062Z,15.60
2018-03-31T17:39:15.066Z,15.50
2018-03-31T17:40:49.564Z,15.70
2018-03-31T17:42:23.953Z,16.00
2018-03-31T17:43:58.327Z,16.10
2018-03-31T17:45:33.239Z,16.10
2018-03-31T17:47:07.545Z,16.10
2018-03-31T17:48:42.829Z,15.50
2018-03-31T17:50:17.180Z,15.50
2018-03-31T17:51:51.479Z,15.20
2018-03-31T17:53:25.913Z,15.50
2018-03-31T17:55:00.553Z,15.70
2018-03-31T17:56:36.419Z,15.70
2018-03-31T17:58:10.671Z,15.80
2018-03-31T17:59:45.756Z,16.20
2018-03-31T18:01:20.198Z,16.10
2018-03-31T18:02:54.491Z,15.90
2018-03-31T18:04:29.071Z,15.90
2018-03-31T18:06:03.323Z,16.00
2018-03-31T18:07:38.550Z,15.80
2018-03-31T18:09:14.107Z,15.70
2018-03-31T18:10:48.614Z,15.90
2018-03-31T18:12:22.863Z,15.90
2018-03-31T18:13:57.558Z,15.80
2018-03-31T18:15:32.104Z,16.10
2018-03-31T18:17:07.889Z,16.30
2018-03-31T18:18:43.143Z,16.30
2018-03-31T18:20:17.452Z,16.30
2018-03-31T18:21:51.843Z,16.20
2018-03-31T18:23:26.801Z,16.30
2018-03-31T18:25:01.060Z,16.30
2018-03-31T18:26:35.412Z,16.40
2018-03-31T18:28:09.785Z,16.30
2018-03-31T18:29:43.930Z,16.10
2018-03-31T18:31:18.158Z,16.10
2018-03-31T18:32:52.701Z,15.90
2018-03-31T18:34:26.984Z,15.60
2018-03-31T18:36:01.348Z,15.40
2018-03-31T18:37:35.690Z,15.10
2018-03-31T18:39:10.714Z,15.00
2018-03-31T18:40:45.725Z,15.10
2018-03-31T18:42:19.840Z,15.00
2018-03-31T18:43:54.267Z,15.10
2018-03-31T18:45:28.960Z,15.20
2018-03-31T18:47:04.176Z,15.20
2018-03-31T18:48:38.550Z,15.20
2018-03-31T18:50:13.570Z,15.20
2018-03-31T18:51:47.657Z,15.20
2018-03-31T18:53:21.859Z,15.20
2018-03-31T18:54:56.156Z,15.40
2018-03-31T18:56:30.640Z,15.70
2018-03-31T18:58:05.742Z,15.90
2018-03-31T18:59:40.022Z,15.90
2018-03-31T19:01:14.263Z,15.80
2018-03-31T19:02:49.051Z,15.90
2018-03-31T19:04:23.502Z,15.40
2018-03-31T19:05:57.763Z,14.70
2018-03-31T19:07:32.070Z,14.00
2018-03-31T19:09:07.139Z,13.40
2018-03-31T19:10:41.402Z,13.00
2018-03-31T19:12:15.522Z,12.50
2018-03-31T19:13:49.837Z,12.30
2018-03-31T19:15:28.342Z,11.90
2018-03-31T19:17:06.693Z,11.90
2018-03-31T19:18:41.000Z,11.90
2018-03-31T19:20:18.043Z,12.10
2018-03-31T19:21:52.387Z,12.10
2018-03-31T19:23:28.185Z,12.20
2018-03-31T19:25:06.337Z,12.20
2018-03-31T19:26:40.614Z,12.30
2018-03-31T19:28:15.228Z,12.40
2018-03-31T19:29:50.647Z,12.50
2018-03-31T19:31:24.933Z,12.50
2018-03-31T19:32:59.864Z,11.80
2018-03-31T19:34:34.683Z,11.80
2018-03-31T19:36:12.867Z,11.90
2018-03-31T19:37:47.131Z,12.10
2018-03-31T19:39:25.546Z,12.10
2018-03-31T19:41:00.533Z,12.20
2018-03-31T19:42:35.432Z,11.80
2018-03-31T19:44:09.672Z,11.70
2018-03-31T19:45:44.142Z,11.60
2018-03-31T19:47:19.035Z,11.60
2018-03-31T19:48:53.163Z,11.40
2018-03-31T19:50:27.755Z,11.30
2018-03-31T19:52:02.046Z,11.20
2018-03-31T19:53:37.042Z,11.10
2018-03-31T19:55:11.437Z,11.00
2018-03-31T19:56:45.747Z,10.70
2018-03-31T19:58:20.044Z,10.70
2018-03-31T19:59:55.017Z,10.70
2018-03-31T20:01:29.058Z,10.70
2018-03-31T20:03:04.324Z,10.60
2018-03-31T20:04:40.111Z,10.60
2018-03-31T20:06:14.648Z,10.60
2018-03-31T20:07:48.801Z,10.60
2018-03-31T20:09:28.103Z,10.50
2018-03-31T20:11:02.404Z,10.50
2018-03-31T20:12:36.994Z,10.50
2018-03-31T20:14:11.988Z,10.80
2018-03-31T20:15:47.225Z,10.90
2018-03-31T20:17:21.486Z,10.80
2018-03-31T20:18:57.398Z,10.80
2018-03-31T20:20:32.493Z,10.80
2018-03-31T20:22:06.916Z,10.80
2018-03-31T20:23:42.050Z,11.00
2018-03-31T20:25:16.487Z,11.00
2018-03-31T20:26:51.494Z,11.10
2018-03-31T20:28:25.766Z,11.10
2018-03-31T20:29:59.937Z,11.10
2018-03-31T20:31:35.118Z,11.10
2018-03-31T20:33:09.613Z,11.00
2018-03-31T20:34:44.803Z,10.90
2018-03-31T20:36:19.888Z,10.70
2018-03-31T20:37:54.772Z,10.70
2018-03-31T20:39:29.879Z,10.70
2018-03-31T20:41:04.364Z,10.70